Terminal Aerodrome Forecast
Issued by NWS Duluth, MN

Home | Current Version | Previous Version | Text Only | Print | Product List | Glossary On
Versions: 1 2 3 4 5 6 7 8 9 10 11 12 13 14 15
000
FTUS43 KDLH 241700
TAFINL
TAF
KINL 241721Z 2418/2518 VRB03KT 5SM BR OVC005
     FM242100 00000KT P6SM -SN OVC008
     FM250500 20005KT 5SM -SN BR SCT008 OVC012
     FM251200 25006KT 6SM -FZDZ BR OVC015=

USA.gov is the U.S. government's official web portal to all federal, state and local government web resources and services.